createdAt,value
2023-03-06T00:00:35.457Z,807.00
2023-03-06T00:01:35.509Z,790.00
2023-03-06T00:02:35.562Z,779.00
2023-03-06T00:03:35.650Z,771.00
2023-03-06T00:04:35.659Z,792.00
2023-03-06T00:05:34.755Z,797.00
2023-03-06T00:06:35.744Z,818.00
2023-03-06T00:07:35.798Z,796.00
2023-03-06T00:08:35.882Z,793.00
2023-03-06T00:09:35.902Z,811.00
2023-03-06T00:10:35.951Z,758.00
2023-03-06T00:11:36.002Z,712.00
2023-03-06T00:12:36.038Z,707.00
2023-03-06T00:13:35.114Z,700.00
2023-03-06T00:14:35.108Z,750.00
2023-03-06T00:15:36.147Z,776.00
2023-03-06T00:16:36.315Z,762.00
2023-03-06T00:17:36.233Z,787.00
2023-03-06T00:18:36.265Z,804.00
2023-03-06T00:19:35.345Z,775.00
2023-03-06T00:20:35.332Z,820.00
2023-03-06T00:21:36.370Z,884.00
2023-03-06T00:22:36.383Z,866.00
2023-03-06T00:23:36.429Z,804.00
2023-03-06T00:24:36.424Z,758.00
2023-03-06T00:25:36.431Z,761.00
2023-03-06T00:26:35.448Z,756.00
2023-03-06T00:27:35.456Z,714.00
2023-03-06T00:28:35.463Z,695.00
2023-03-06T00:29:36.485Z,662.00
2023-03-06T00:30:36.565Z,650.00
2023-03-06T00:31:36.539Z,645.00
2023-03-06T00:32:35.554Z,632.00
2023-03-06T00:33:36.449Z,631.00
2023-03-06T00:34:35.453Z,628.00
2023-03-06T00:35:36.556Z,636.00
2023-03-06T00:36:36.476Z,629.00
2023-03-06T00:37:35.514Z,622.00
2023-03-06T00:38:36.479Z,608.00
2023-03-06T00:39:36.477Z,618.00
2023-03-06T00:40:35.486Z,608.00
2023-03-06T00:41:36.497Z,605.00
2023-03-06T00:42:36.543Z,599.00
2023-03-06T00:43:36.517Z,602.00
2023-03-06T00:44:36.542Z,597.00
2023-03-06T00:45:36.573Z,596.00
2023-03-06T00:46:36.540Z,588.00
2023-03-06T00:47:36.531Z,592.00
2023-03-06T00:48:36.556Z,582.00
2023-03-06T00:49:36.536Z,591.00
2023-03-06T00:50:36.541Z,595.00
2023-03-06T00:51:36.535Z,585.00
2023-03-06T00:52:35.541Z,588.00
2023-03-06T00:53:36.600Z,581.00
2023-03-06T00:54:36.549Z,578.00
2023-03-06T00:55:36.575Z,582.00
2023-03-06T00:56:36.560Z,583.00
2023-03-06T00:57:36.595Z,582.00
2023-03-06T00:58:36.602Z,578.00
2023-03-06T00:59:35.647Z,579.00
2023-03-06T01:00:36.782Z,570.00
2023-03-06T01:01:36.754Z,572.00
2023-03-06T01:02:36.809Z,573.00
2023-03-06T01:03:36.849Z,572.00
2023-03-06T01:04:36.904Z,573.00
2023-03-06T01:05:36.962Z,565.00
2023-03-06T01:06:37.042Z,570.00
2023-03-06T01:07:37.085Z,564.00
2023-03-06T01:08:37.147Z,563.00
2023-03-06T01:09:37.218Z,563.00
2023-03-06T01:10:36.243Z,566.00
2023-03-06T01:11:36.292Z,557.00
2023-03-06T01:12:37.362Z,557.00
2023-03-06T01:13:37.448Z,560.00
2023-03-06T01:14:37.501Z,556.00
2023-03-06T01:15:37.552Z,557.00
2023-03-06T01:16:37.660Z,554.00
2023-03-06T01:17:36.691Z,556.00
2023-03-06T01:18:36.752Z,556.00
2023-03-06T01:19:37.820Z,554.00
2023-03-06T01:20:36.882Z,548.00
2023-03-06T01:21:37.955Z,553.00
2023-03-06T01:22:38.001Z,552.00
2023-03-06T01:23:38.063Z,545.00
2023-03-06T01:24:38.124Z,548.00
2023-03-06T01:25:38.213Z,551.00
2023-03-06T01:26:38.252Z,539.00
2023-03-06T01:27:38.312Z,541.00
2023-03-06T01:28:38.371Z,545.00
2023-03-06T01:29:38.430Z,541.00
2023-03-06T01:30:38.488Z,539.00
2023-03-06T01:31:38.654Z,539.00
2023-03-06T01:32:38.717Z,532.00
2023-03-06T01:33:38.685Z,539.00
2023-03-06T01:34:37.746Z,533.00
2023-03-06T01:35:37.849Z,536.00
2023-03-06T01:36:38.855Z,535.00
2023-03-06T01:37:38.918Z,529.00
2023-03-06T01:38:38.980Z,533.00
2023-03-06T01:39:39.035Z,538.00
2023-03-06T01:40:39.112Z,531.00
2023-03-06T01:41:38.196Z,531.00
2023-03-06T01:42:39.219Z,532.00
2023-03-06T01:43:39.270Z,531.00
2023-03-06T01:44:39.338Z,530.00
2023-03-06T01:45:39.399Z,525.00
2023-03-06T01:46:38.438Z,523.00
2023-03-06T01:47:39.496Z,533.00
2023-03-06T01:48:39.565Z,526.00
2023-03-06T01:49:39.635Z,523.00
2023-03-06T01:50:38.673Z,524.00
2023-03-06T01:51:39.722Z,522.00
2023-03-06T01:52:39.816Z,525.00
2023-03-06T01:53:39.853Z,521.00
2023-03-06T01:54:38.906Z,522.00
2023-03-06T01:55:39.938Z,517.00
2023-03-06T01:56:38.996Z,517.00
2023-03-06T01:57:40.075Z,520.00
2023-03-06T01:58:40.101Z,521.00
2023-03-06T01:59:39.147Z,515.00
2023-03-06T02:00:40.211Z,515.00
2023-03-06T02:01:40.247Z,516.00
2023-03-06T02:02:40.345Z,513.00
2023-03-06T02:03:39.352Z,516.00
2023-03-06T02:04:40.454Z,518.00
2023-03-06T02:05:39.461Z,514.00
2023-03-06T02:06:40.525Z,512.00
2023-03-06T02:07:40.577Z,514.00
2023-03-06T02:08:40.632Z,508.00
2023-03-06T02:09:40.690Z,509.00
2023-03-06T02:10:40.731Z,511.00
2023-03-06T02:11:40.823Z,508.00
2023-03-06T02:12:40.825Z,506.00
2023-03-06T02:13:40.902Z,503.00
2023-03-06T02:14:40.941Z,512.00
2023-03-06T02:15:40.965Z,508.00
2023-03-06T02:16:41.108Z,505.00
2023-03-06T02:17:40.081Z,510.00
2023-03-06T02:18:41.118Z,508.00
2023-03-06T02:19:40.156Z,506.00
2023-03-06T02:20:41.201Z,502.00
2023-03-06T02:21:41.289Z,507.00
2023-03-06T02:22:41.300Z,501.00
2023-03-06T02:23:41.339Z,502.00
2023-03-06T02:24:41.387Z,505.00
2023-03-06T02:25:40.424Z,505.00
2023-03-06T02:26:41.469Z,508.00
2023-03-06T02:27:41.524Z,504.00
2023-03-06T02:28:41.555Z,504.00
2023-03-06T02:29:41.614Z,503.00
2023-03-06T02:30:40.682Z,506.00
2023-03-06T02:31:41.675Z,505.00
2023-03-06T02:32:40.713Z,502.00
2023-03-06T02:33:41.756Z,507.00
2023-03-06T02:34:40.804Z,506.00
2023-03-06T02:35:41.895Z,503.00
2023-03-06T02:36:40.888Z,505.00
2023-03-06T02:37:40.938Z,512.00
2023-03-06T02:38:41.975Z,508.00
2023-03-06T02:39:42.008Z,507.00
2023-03-06T02:40:42.045Z,511.00
2023-03-06T02:41:42.091Z,507.00
2023-03-06T02:42:42.135Z,500.00
2023-03-06T02:43:41.172Z,511.00
2023-03-06T02:44:41.255Z,504.00
2023-03-06T02:45:41.289Z,508.00
2023-03-06T02:46:41.309Z,507.00
2023-03-06T02:47:42.362Z,506.00
2023-03-06T02:48:42.425Z,507.00
2023-03-06T02:49:42.458Z,512.00
2023-03-06T02:50:41.522Z,514.00
2023-03-06T02:51:42.603Z,519.00
2023-03-06T02:52:42.600Z,515.00
2023-03-06T02:53:42.649Z,511.00
2023-03-06T02:54:42.711Z,515.00
2023-03-06T02:55:42.746Z,511.00
2023-03-06T02:56:41.780Z,506.00
2023-03-06T02:57:42.840Z,506.00
2023-03-06T02:58:42.881Z,506.00
2023-03-06T02:59:42.943Z,511.00
2023-03-06T03:00:41.968Z,513.00
2023-03-06T03:01:43.116Z,512.00
2023-03-06T03:02:43.071Z,518.00
2023-03-06T03:03:42.110Z,511.00
2023-03-06T03:04:42.209Z,501.00
2023-03-06T03:05:43.222Z,513.00
2023-03-06T03:06:42.269Z,506.00
2023-03-06T03:07:43.320Z,502.00
2023-03-06T03:08:43.372Z,503.00
2023-03-06T03:09:43.425Z,513.00
2023-03-06T03:10:42.480Z,505.00
2023-03-06T03:11:43.561Z,506.00
2023-03-06T03:12:43.611Z,508.00
2023-03-06T03:13:42.627Z,507.00
2023-03-06T03:14:43.700Z,502.00
2023-03-06T03:15:43.790Z,500.00
2023-03-06T03:16:43.773Z,502.00
2023-03-06T03:17:43.865Z,503.00
2023-03-06T03:18:43.886Z,504.00
2023-03-06T03:19:43.916Z,504.00
2023-03-06T03:20:42.991Z,510.00
2023-03-06T03:21:44.009Z,507.00
2023-03-06T03:22:44.054Z,507.00
2023-03-06T03:23:44.105Z,506.00
2023-03-06T03:24:44.177Z,508.00
2023-03-06T03:25:43.221Z,513.00
2023-03-06T03:26:43.241Z,504.00
2023-03-06T03:27:44.282Z,506.00
2023-03-06T03:28:44.343Z,504.00
2023-03-06T03:29:44.369Z,504.00
2023-03-06T03:30:44.428Z,509.00
2023-03-06T03:31:43.470Z,507.00
2023-03-06T03:32:44.544Z,507.00
2023-03-06T03:33:44.602Z,503.00
2023-03-06T03:34:44.626Z,506.00
2023-03-06T03:35:44.696Z,501.00
2023-03-06T03:36:44.715Z,508.00
2023-03-06T03:37:44.743Z,503.00
2023-03-06T03:38:44.800Z,505.00
2023-03-06T03:39:44.837Z,506.00
2023-03-06T03:40:44.916Z,502.00
2023-03-06T03:41:44.934Z,503.00
2023-03-06T03:42:44.981Z,505.00
2023-03-06T03:43:44.033Z,504.00
2023-03-06T03:44:45.072Z,503.00
2023-03-06T03:45:45.154Z,505.00
2023-03-06T03:46:45.261Z,506.00
2023-03-06T03:47:45.199Z,514.00
2023-03-06T03:48:45.246Z,506.00
2023-03-06T03:49:45.323Z,506.00
2023-03-06T03:50:45.374Z,505.00
2023-03-06T03:51:45.387Z,502.00
2023-03-06T03:52:44.434Z,507.00
2023-03-06T03:53:45.456Z,512.00
2023-03-06T03:54:45.509Z,512.00
2023-03-06T03:55:45.566Z,504.00
2023-03-06T03:56:45.629Z,512.00
2023-03-06T03:57:45.628Z,509.00
2023-03-06T03:58:44.688Z,511.00
2023-03-06T03:59:45.715Z,506.00
2023-03-06T04:00:44.763Z,511.00
2023-03-06T04:01:45.860Z,514.00
2023-03-06T04:02:45.857Z,511.00
2023-03-06T04:03:45.869Z,506.00
2023-03-06T04:04:45.935Z,507.00
2023-03-06T04:05:44.983Z,509.00
2023-03-06T04:06:46.019Z,513.00
2023-03-06T04:07:46.077Z,508.00
2023-03-06T04:08:46.107Z,510.00
2023-03-06T04:09:46.126Z,508.00
2023-03-06T04:10:46.174Z,511.00
2023-03-06T04:11:46.222Z,511.00
2023-03-06T04:12:46.264Z,510.00
2023-03-06T04:13:46.381Z,511.00
2023-03-06T04:14:46.334Z,515.00
2023-03-06T04:15:46.371Z,510.00
2023-03-06T04:16:45.417Z,504.00
2023-03-06T04:17:46.463Z,506.00
2023-03-06T04:18:46.507Z,510.00
2023-03-06T04:19:45.554Z,506.00
2023-03-06T04:20:46.597Z,507.00
2023-03-06T04:21:46.644Z,508.00
2023-03-06T04:22:45.660Z,512.00
2023-03-06T04:23:46.699Z,508.00
2023-03-06T04:24:46.751Z,512.00
2023-03-06T04:25:45.776Z,505.00
2023-03-06T04:26:46.824Z,506.00
2023-03-06T04:27:46.874Z,510.00
2023-03-06T04:28:45.894Z,511.00
2023-03-06T04:29:46.938Z,510.00
2023-03-06T04:30:46.989Z,509.00
2023-03-06T04:31:47.050Z,508.00
2023-03-06T04:32:46.054Z,511.00
2023-03-06T04:33:46.104Z,506.00
2023-03-06T04:34:46.153Z,505.00
2023-03-06T04:35:47.244Z,501.00
2023-03-06T04:36:47.220Z,507.00
2023-03-06T04:37:46.286Z,514.00
2023-03-06T04:38:46.421Z,510.00
2023-03-06T04:39:47.335Z,508.00
2023-03-06T04:40:47.377Z,505.00
2023-03-06T04:41:46.422Z,507.00
2023-03-06T04:42:47.480Z,501.00
2023-03-06T04:43:47.482Z,507.00
2023-03-06T04:44:47.533Z,506.00
2023-03-06T04:45:47.654Z,512.00
2023-03-06T04:46:47.634Z,508.00
2023-03-06T04:47:47.652Z,511.00
2023-03-06T04:48:46.686Z,508.00
2023-03-06T04:49:47.734Z,508.00
2023-03-06T04:50:46.776Z,505.00
2023-03-06T04:51:47.819Z,509.00
2023-03-06T04:52:47.865Z,506.00
2023-03-06T04:53:46.921Z,514.00
2023-03-06T04:54:46.938Z,508.00
2023-03-06T04:55:47.993Z,511.00
2023-03-06T04:56:48.006Z,510.00
2023-03-06T04:57:48.034Z,507.00
2023-03-06T04:58:48.072Z,510.00
2023-03-06T04:59:47.119Z,510.00
2023-03-06T05:00:48.229Z,508.00
2023-03-06T05:01:47.270Z,504.00
2023-03-06T05:02:48.231Z,509.00
2023-03-06T05:03:48.253Z,507.00
2023-03-06T05:04:48.302Z,505.00
2023-03-06T05:05:48.341Z,514.00
2023-03-06T05:06:48.386Z,507.00
2023-03-06T05:07:47.441Z,512.00
2023-03-06T05:08:47.462Z,513.00
2023-03-06T05:09:48.506Z,504.00
2023-03-06T05:10:48.531Z,514.00
2023-03-06T05:11:48.575Z,503.00
2023-03-06T05:12:47.606Z,513.00
2023-03-06T05:13:48.656Z,510.00
2023-03-06T05:14:48.682Z,516.00
2023-03-06T05:15:48.696Z,513.00
2023-03-06T05:16:48.835Z,507.00
2023-03-06T05:17:48.784Z,509.00
2023-03-06T05:18:50.602Z,511.00
2023-03-06T05:19:48.793Z,508.00
2023-03-06T05:20:48.793Z,515.00
2023-03-06T05:21:48.791Z,512.00
2023-03-06T05:22:48.773Z,506.00
2023-03-06T05:23:48.770Z,505.00
2023-03-06T05:24:48.776Z,507.00
2023-03-06T05:25:48.773Z,509.00
2023-03-06T05:26:47.741Z,508.00
2023-03-06T05:27:48.740Z,509.00
2023-03-06T05:28:48.732Z,503.00
2023-03-06T05:29:49.408Z,507.00
2023-03-06T05:30:48.713Z,509.00
2023-03-06T05:31:48.826Z,500.00
2023-03-06T05:32:48.744Z,510.00
2023-03-06T05:33:48.702Z,503.00
2023-03-06T05:34:48.679Z,509.00
2023-03-06T05:35:48.736Z,511.00
2023-03-06T05:36:48.681Z,507.00
2023-03-06T05:37:48.685Z,508.00
2023-03-06T05:38:48.688Z,503.00
2023-03-06T05:39:48.662Z,510.00
2023-03-06T05:40:48.659Z,512.00
2023-03-06T05:41:48.664Z,510.00
2023-03-06T05:42:48.651Z,509.00
2023-03-06T05:43:48.645Z,509.00
2023-03-06T05:44:48.623Z,507.00
2023-03-06T05:45:47.665Z,510.00
2023-03-06T05:46:47.610Z,509.00
2023-03-06T05:47:48.608Z,511.00
2023-03-06T05:48:48.587Z,507.00
2023-03-06T05:49:47.593Z,506.00
2023-03-06T05:50:48.595Z,504.00
2023-03-06T05:51:47.571Z,508.00
2023-03-06T05:52:48.619Z,509.00
2023-03-06T05:53:48.750Z,508.00
2023-03-06T05:54:48.698Z,505.00
2023-03-06T05:55:48.729Z,506.00
2023-03-06T05:56:47.777Z,507.00
2023-03-06T05:57:48.843Z,505.00
2023-03-06T05:58:47.873Z,515.00
2023-03-06T05:59:48.908Z,506.00
2023-03-06T06:00:47.958Z,506.00
2023-03-06T06:01:48.998Z,506.00
2023-03-06T06:02:49.044Z,513.00
2023-03-06T06:03:49.153Z,506.00
2023-03-06T06:04:49.122Z,508.00
2023-03-06T06:05:48.160Z,506.00
2023-03-06T06:06:49.205Z,508.00
2023-03-06T06:07:49.277Z,507.00
2023-03-06T06:08:49.293Z,514.00
2023-03-06T06:09:49.322Z,513.00
2023-03-06T06:10:51.581Z,511.00
2023-03-06T06:11:48.368Z,511.00
2023-03-06T06:12:49.369Z,509.00
2023-03-06T06:13:49.364Z,511.00
2023-03-06T06:14:48.339Z,507.00
2023-03-06T06:15:49.410Z,513.00
2023-03-06T06:16:49.342Z,504.00
2023-03-06T06:17:49.349Z,514.00
2023-03-06T06:18:49.321Z,513.00
2023-03-06T06:19:48.310Z,501.00
2023-03-06T06:20:49.312Z,507.00
2023-03-06T06:21:49.302Z,509.00
2023-03-06T06:22:49.303Z,517.00
2023-03-06T06:23:48.288Z,532.00
2023-03-06T06:24:49.298Z,531.00
2023-03-06T06:25:49.294Z,525.00
2023-03-06T06:26:49.264Z,529.00
2023-03-06T06:27:49.314Z,538.00
2023-03-06T06:28:49.340Z,525.00
2023-03-06T06:29:49.419Z,526.00
2023-03-06T06:30:49.463Z,535.00
2023-03-06T06:31:48.443Z,592.00
2023-03-06T06:32:49.482Z,565.00
2023-03-06T06:33:49.498Z,556.00
2023-03-06T06:34:49.534Z,554.00
2023-03-06T06:35:49.589Z,545.00
2023-03-06T06:36:52.213Z,541.00
2023-03-06T06:37:49.580Z,542.00
2023-03-06T06:38:49.543Z,542.00
2023-03-06T06:39:49.547Z,551.00
2023-03-06T06:41:26.897Z,577.00
2023-03-06T06:42:14.537Z,543.00
2023-03-06T06:42:49.529Z,543.00
2023-03-06T06:43:49.532Z,548.00
2023-03-06T06:44:49.623Z,555.00
2023-03-06T06:45:50.424Z,566.00
2023-03-06T06:47:49.552Z,544.00
2023-03-06T06:48:49.469Z,556.00
2023-03-06T06:49:49.482Z,595.00
2023-03-06T06:50:49.490Z,608.00
2023-03-06T06:51:49.541Z,628.00
2023-03-06T06:52:49.505Z,706.00
2023-03-06T06:53:49.446Z,659.00
2023-03-06T06:54:49.442Z,672.00
2023-03-06T06:55:49.462Z,755.00
2023-03-06T06:56:49.428Z,801.00
2023-03-06T06:57:49.429Z,723.00
2023-03-06T06:58:49.420Z,787.00
2023-03-06T06:59:51.262Z,738.00
2023-03-06T07:00:49.413Z,739.00
2023-03-06T07:01:49.460Z,767.00
2023-03-06T07:02:49.456Z,802.00
2023-03-06T07:03:49.398Z,824.00
2023-03-06T07:05:03.013Z,870.00
2023-03-06T07:05:49.375Z,743.00
2023-03-06T07:06:48.936Z,775.00
2023-03-06T07:07:49.370Z,864.00
2023-03-06T07:08:49.325Z,975.00
2023-03-06T07:09:49.315Z,1034.00
2023-03-06T07:10:49.320Z,1025.00
2023-03-06T07:11:49.354Z,1039.00
2023-03-06T07:12:49.332Z,1011.00
2023-03-06T07:13:49.311Z,1062.00
2023-03-06T07:14:49.296Z,1100.00
2023-03-06T07:15:48.326Z,1175.00
2023-03-06T07:16:49.278Z,1160.00
2023-03-06T07:17:50.294Z,1179.00
2023-03-06T07:18:48.263Z,1169.00
2023-03-06T07:19:49.275Z,1132.00
2023-03-06T07:20:49.240Z,1156.00
2023-03-06T07:21:49.277Z,1135.00
2023-03-06T07:22:51.602Z,1237.00
2023-03-06T07:23:49.284Z,1282.00
2023-03-06T07:24:49.267Z,1271.00
2023-03-06T07:25:48.218Z,1301.00
2023-03-06T07:26:48.208Z,1399.00
2023-03-06T07:27:53.475Z,1411.00
2023-03-06T07:28:52.750Z,1412.00
2023-03-06T07:29:49.174Z,1412.00
2023-03-06T07:30:48.162Z,1413.00
2023-03-06T07:31:49.172Z,1411.00
2023-03-06T07:32:49.188Z,1383.00
2023-03-06T07:33:49.178Z,1399.00
2023-03-06T07:34:49.193Z,1443.00
2023-03-06T07:35:49.156Z,1424.00
2023-03-06T07:36:49.149Z,1391.00
2023-03-06T07:37:48.121Z,1443.00
2023-03-06T07:38:49.156Z,1467.00
2023-03-06T07:39:49.122Z,1462.00
2023-03-06T07:40:49.110Z,1468.00
2023-03-06T07:41:49.102Z,1459.00
2023-03-06T07:42:49.132Z,1476.00
2023-03-06T07:43:49.093Z,1513.00
2023-03-06T07:44:48.100Z,1475.00
2023-03-06T07:45:49.070Z,1494.00
2023-03-06T07:46:49.107Z,1504.00
2023-03-06T07:47:49.049Z,1464.00
2023-03-06T07:48:49.069Z,1475.00
2023-03-06T07:49:48.073Z,1500.00
2023-03-06T07:50:48.056Z,1485.00
2023-03-06T07:51:49.058Z,1448.00
2023-03-06T07:52:49.037Z,1448.00
2023-03-06T07:53:49.449Z,1480.00
2023-03-06T07:54:49.018Z,1492.00
2023-03-06T07:55:49.015Z,1425.00
2023-03-06T07:56:49.009Z,1447.00
2023-03-06T07:57:49.004Z,1553.00
2023-03-06T07:58:49.467Z,1621.00
2023-03-06T07:59:47.971Z,1658.00
2023-03-06T08:00:48.969Z,1621.00
2023-03-06T08:01:48.956Z,1656.00
2023-03-06T08:02:49.045Z,1699.00
2023-03-06T08:03:48.979Z,1687.00
2023-03-06T08:04:48.941Z,1722.00
2023-03-06T08:05:49.004Z,1727.00
2023-03-06T08:06:48.941Z,1696.00
2023-03-06T08:07:48.937Z,1752.00
2023-03-06T08:08:48.949Z,1713.00
2023-03-06T08:09:48.909Z,1785.00
2023-03-06T08:10:48.924Z,1722.00
2023-03-06T08:11:48.959Z,1812.00
2023-03-06T08:12:48.987Z,1772.00
2023-03-06T08:13:49.042Z,1794.00
2023-03-06T08:14:49.056Z,1778.00
2023-03-06T08:15:48.061Z,1759.00
2023-03-06T08:16:48.126Z,1738.00
2023-03-06T08:17:49.145Z,1802.00
2023-03-06T08:18:48.204Z,1759.00
2023-03-06T08:19:49.249Z,1775.00
2023-03-06T08:20:49.321Z,1827.00
2023-03-06T08:21:49.408Z,1852.00
2023-03-06T08:22:48.442Z,1890.00
2023-03-06T08:23:49.479Z,1932.00
2023-03-06T08:24:49.506Z,1933.00
2023-03-06T08:25:49.559Z,1960.00
2023-03-06T08:26:49.644Z,2007.00
2023-03-06T08:27:49.722Z,1986.00
2023-03-06T08:28:49.742Z,2022.00
2023-03-06T08:29:49.803Z,1966.00
2023-03-06T08:30:49.858Z,1998.00
2023-03-06T08:31:49.971Z,2006.00
2023-03-06T08:32:49.021Z,1989.00
2023-03-06T08:33:50.064Z,2046.00
2023-03-06T08:34:50.104Z,2042.00
2023-03-06T08:35:50.217Z,2042.00
2023-03-06T08:36:49.231Z,2043.00
2023-03-06T08:37:50.303Z,2031.00
2023-03-06T08:38:49.324Z,2029.00
2023-03-06T08:39:50.356Z,2059.00
2023-03-06T08:40:50.398Z,2074.00
2023-03-06T08:41:50.435Z,2058.00
2023-03-06T08:42:50.484Z,2077.00
2023-03-06T08:43:50.517Z,2070.00
2023-03-06T08:44:50.568Z,2101.00
2023-03-06T08:45:50.696Z,2100.00
2023-03-06T08:46:50.637Z,2056.00
2023-03-06T08:47:50.722Z,2033.00
2023-03-06T08:48:51.018Z,2072.00
2023-03-06T08:49:49.825Z,2067.00
2023-03-06T08:50:49.873Z,2123.00
2023-03-06T08:51:50.913Z,2148.00
2023-03-06T08:52:50.002Z,2122.00
2023-03-06T08:53:51.065Z,2154.00
2023-03-06T08:54:51.067Z,2276.00
2023-03-06T08:55:51.104Z,2197.00
2023-03-06T08:56:51.154Z,2183.00
2023-03-06T08:57:51.211Z,2203.00
2023-03-06T08:58:51.246Z,2229.00
2023-03-06T08:59:50.262Z,2198.00
2023-03-06T09:00:50.446Z,2173.00
2023-03-06T09:01:51.367Z,2190.00
2023-03-06T09:02:50.392Z,2177.00
2023-03-06T09:03:51.461Z,2187.00
2023-03-06T09:04:50.506Z,2198.00
2023-03-06T09:05:50.507Z,2188.00
2023-03-06T09:06:51.530Z,2139.00
2023-03-06T09:07:50.566Z,2121.00
2023-03-06T09:08:51.588Z,2128.00
2023-03-06T09:09:51.691Z,2130.00
2023-03-06T09:10:51.757Z,2097.00
2023-03-06T09:11:51.702Z,2202.00
2023-03-06T09:12:54.416Z,2165.00
2023-03-06T09:13:51.726Z,2166.00
2023-03-06T09:14:51.692Z,2174.00
2023-03-06T09:15:51.699Z,2199.00
2023-03-06T09:16:51.749Z,2221.00
2023-03-06T09:17:51.697Z,2221.00
2023-03-06T09:18:51.681Z,2205.00
2023-03-06T09:19:51.658Z,2256.00
2023-03-06T09:20:51.672Z,2219.00
2023-03-06T09:21:51.670Z,2210.00
2023-03-06T09:22:51.650Z,2185.00
2023-03-06T09:23:51.645Z,2200.00
2023-03-06T09:24:51.641Z,2164.00
2023-03-06T09:25:50.650Z,2160.00
2023-03-06T09:26:51.836Z,2201.00
2023-03-06T09:28:08.658Z,2234.00
2023-03-06T09:28:51.617Z,2236.00
2023-03-06T09:29:51.597Z,2241.00
2023-03-06T09:30:51.619Z,2240.00
2023-03-06T09:31:50.568Z,2223.00
2023-03-06T09:32:51.572Z,2220.00
2023-03-06T09:33:51.574Z,2202.00
2023-03-06T09:34:50.570Z,2230.00
2023-03-06T09:35:51.582Z,2229.00
2023-03-06T09:36:56.505Z,2219.00
2023-03-06T09:37:51.550Z,2221.00
2023-03-06T09:38:51.541Z,2226.00
2023-03-06T09:39:51.523Z,2247.00
2023-03-06T09:40:50.536Z,2270.00
2023-03-06T09:41:51.549Z,2260.00
2023-03-06T09:42:51.517Z,2214.00
2023-03-06T09:43:51.996Z,2166.00
2023-03-06T09:44:51.512Z,2142.00
2023-03-06T09:45:51.563Z,2050.00
2023-03-06T09:46:51.479Z,1935.00
2023-03-06T09:47:51.478Z,1890.00
2023-03-06T09:48:51.471Z,1885.00
2023-03-06T09:49:50.478Z,1702.00
2023-03-06T09:50:51.450Z,1801.00
2023-03-06T09:51:50.453Z,1768.00
2023-03-06T09:52:51.475Z,1764.00
2023-03-06T09:53:51.433Z,1688.00
2023-03-06T09:54:51.423Z,1694.00
2023-03-06T09:55:51.417Z,1678.00
2023-03-06T09:56:51.411Z,1645.00
2023-03-06T09:57:52.439Z,1618.00
2023-03-06T09:58:51.537Z,1650.00
2023-03-06T09:59:50.398Z,1628.00
2023-03-06T10:00:51.379Z,1640.00
2023-03-06T10:01:50.369Z,1668.00
2023-03-06T10:02:51.519Z,1785.00
2023-03-06T10:03:50.365Z,1749.00
2023-03-06T10:04:50.427Z,1789.00
2023-03-06T10:05:51.350Z,1784.00
2023-03-06T10:06:51.341Z,1777.00
2023-03-06T10:07:50.348Z,1730.00
2023-03-06T10:08:51.315Z,1739.00
2023-03-06T10:09:50.400Z,1741.00
2023-03-06T10:10:51.314Z,1761.00
2023-03-06T10:11:50.362Z,1769.00
2023-03-06T10:12:50.377Z,1762.00
2023-03-06T10:13:51.527Z,1781.00
2023-03-06T10:14:51.503Z,1792.00
2023-03-06T10:15:50.545Z,1836.00
2023-03-06T10:16:51.586Z,1800.00
2023-03-06T10:17:51.631Z,1778.00
2023-03-06T10:18:50.683Z,1794.00
2023-03-06T10:19:51.735Z,1818.00
2023-03-06T10:20:50.758Z,1881.00
2023-03-06T10:21:51.802Z,1873.00
2023-03-06T10:23:00.622Z,1938.00
2023-03-06T10:23:51.831Z,1939.00
2023-03-06T10:24:50.827Z,1929.00
2023-03-06T10:25:50.832Z,1880.00
2023-03-06T10:26:51.951Z,1860.00
2023-03-06T10:27:51.807Z,1847.00
2023-03-06T10:28:51.812Z,1859.00
2023-03-06T10:30:02.117Z,1862.00
2023-03-06T10:30:51.915Z,1862.00
2023-03-06T10:31:51.786Z,1866.00
2023-03-06T10:32:51.810Z,1876.00
2023-03-06T10:33:51.762Z,1872.00
2023-03-06T10:34:51.776Z,1852.00
2023-03-06T10:35:50.888Z,1887.00
2023-03-06T10:36:51.759Z,1915.00
2023-03-06T10:37:51.746Z,1939.00
2023-03-06T10:38:51.758Z,1905.00
2023-03-06T10:39:51.724Z,1933.00
2023-03-06T10:40:51.714Z,1924.00
2023-03-06T10:41:51.737Z,1918.00
2023-03-06T10:42:58.768Z,1945.00
2023-03-06T10:43:51.708Z,1946.00
2023-03-06T10:44:51.026Z,1954.00
2023-03-06T10:45:50.757Z,1960.00
2023-03-06T10:46:51.697Z,1956.00
2023-03-06T10:47:51.667Z,1950.00
2023-03-06T10:48:51.682Z,1937.00
2023-03-06T10:49:52.026Z,1937.00
2023-03-06T10:50:51.625Z,1916.00
2023-03-06T10:51:51.671Z,1901.00
2023-03-06T10:52:51.618Z,1933.00
2023-03-06T10:53:51.679Z,1930.00
2023-03-06T10:54:51.047Z,1923.00
2023-03-06T10:55:51.603Z,1893.00
2023-03-06T10:56:51.593Z,1945.00
2023-03-06T10:57:51.598Z,1900.00
2023-03-06T10:58:51.577Z,1838.00
2023-03-06T10:59:51.603Z,1793.00
2023-03-06T11:00:51.552Z,1835.00
2023-03-06T11:01:51.713Z,1750.00
2023-03-06T11:02:51.532Z,1705.00
2023-03-06T11:03:51.575Z,1662.00
2023-03-06T11:04:51.648Z,1670.00
2023-03-06T11:05:51.505Z,1644.00
2023-03-06T11:06:51.510Z,1615.00
2023-03-06T11:07:51.493Z,1624.00
2023-03-06T11:08:51.532Z,1635.00
2023-03-06T11:09:51.501Z,1589.00
2023-03-06T11:10:51.484Z,1672.00
2023-03-06T11:11:51.480Z,1626.00
2023-03-06T11:12:51.477Z,1641.00
2023-03-06T11:13:51.454Z,1663.00
2023-03-06T11:14:51.453Z,1639.00
2023-03-06T11:15:51.479Z,1653.00
2023-03-06T11:16:51.445Z,1594.00
2023-03-06T11:17:51.528Z,1644.00
2023-03-06T11:18:51.444Z,1704.00
2023-03-06T11:19:51.451Z,1705.00
2023-03-06T11:20:52.843Z,1720.00
2023-03-06T11:21:50.573Z,1753.00
2023-03-06T11:22:51.575Z,1747.00
2023-03-06T11:23:51.605Z,1719.00
2023-03-06T11:24:51.604Z,1736.00
2023-03-06T11:25:51.634Z,1735.00
2023-03-06T11:26:51.647Z,1707.00
2023-03-06T11:27:51.640Z,1701.00
2023-03-06T11:28:50.678Z,1716.00
2023-03-06T11:29:51.679Z,1713.00
2023-03-06T11:30:51.680Z,1739.00
2023-03-06T11:31:50.684Z,1742.00
2023-03-06T11:32:51.702Z,1754.00
2023-03-06T11:33:51.723Z,1782.00
2023-03-06T11:34:51.717Z,1802.00
2023-03-06T11:35:51.798Z,1760.00
2023-03-06T11:36:51.711Z,1760.00
2023-03-06T11:37:51.716Z,1736.00
2023-03-06T11:38:51.725Z,1707.00
2023-03-06T11:39:51.796Z,1810.00
2023-03-06T11:40:51.752Z,1756.00
2023-03-06T11:41:51.751Z,1787.00
2023-03-06T11:42:51.763Z,1729.00
2023-03-06T11:43:50.730Z,1733.00
2023-03-06T11:44:50.725Z,1719.00
2023-03-06T11:45:51.747Z,1649.00
2023-03-06T11:46:51.850Z,1622.00
2023-03-06T11:47:51.805Z,1571.00
2023-03-06T11:48:51.801Z,1572.00
2023-03-06T11:49:51.894Z,1582.00
2023-03-06T11:50:51.827Z,1539.00
2023-03-06T11:51:51.860Z,1541.00
2023-03-06T11:52:51.869Z,1524.00
2023-03-06T11:53:51.920Z,1532.00
2023-03-06T11:54:51.913Z,1529.00
2023-03-06T11:55:51.967Z,1508.00
2023-03-06T11:56:52.040Z,1491.00
2023-03-06T11:57:51.986Z,1491.00
2023-03-06T11:58:52.014Z,1468.00
2023-03-06T11:59:52.031Z,1496.00
2023-03-06T12:00:52.034Z,1517.00
2023-03-06T12:01:52.166Z,1509.00
2023-03-06T12:02:52.044Z,1508.00
2023-03-06T12:03:52.047Z,1501.00
2023-03-06T12:04:52.073Z,1468.00
2023-03-06T12:05:52.087Z,1486.00
2023-03-06T12:06:52.070Z,1483.00
2023-03-06T12:07:52.090Z,1491.00
2023-03-06T12:08:52.078Z,1526.00
2023-03-06T12:09:52.101Z,1510.00
2023-03-06T12:10:52.446Z,1528.00
2023-03-06T12:11:52.092Z,1529.00
2023-03-06T12:12:52.083Z,1530.00
2023-03-06T12:14:51.099Z,1570.00
2023-03-06T12:15:52.101Z,1598.00
2023-03-06T12:16:52.175Z,1595.00
2023-03-06T12:17:52.085Z,1613.00
2023-03-06T12:18:52.080Z,1586.00
2023-03-06T12:19:51.112Z,1582.00
2023-03-06T12:20:52.088Z,1658.00